Terminal Aerodrome Forecast
Issued by NWS Charleston, WV

Current Version | Previous Version | Text Only | Print | Product List | Glossary Off
Versions: 1 2 3 4 5 6 7 8 9 10 11 12 13 14 15 16 17 18 19 20 21

000
FTUS41 KRLX 011700
TAFEKN
TAF
KEKN 011726Z 0118/0218 33007KT P6SM SCT025 BKN050
     FM011900 33007KT P6SM VCTS BKN025CB
     FM012200 33007KT P6SM BKN025
     FM020200 VRB03KT P6SM BKN030
     FM020600 00000KT 4SM BR SCT030
     FM021400 00000KT P6SM SCT250
     FM021700 33005KT P6SM SCT045=

USA.gov is the U.S. government's official web portal to all federal, state and local government web resources and services.